CheckWX is a tool to help pilots better visualize weather data.  It is not intended as a substitute for an official pre-flight weather briefing.

04:01:16 UTC

EGXS METAR
RAF Swinderby Airport
Swinderby, United Kingdom
Current

1 hour ago

EGXS 250250Z AUTO 14009KT 9999 // SCT060/// 08/06 Q0998
Observed
Apr-25 @ 02:50 UTC
Wind
  • 140° at 9 KTS
Visibility
10,000+ meters
Flight Rules
VFR
Cloud Levels
  • Scattered at 6,000' AGL
Temperature
C / 46°F
Dewpoint
C / 43°F
Humidity
87%
Altimeter
29.47" Hg
Pressure
997.92 hPa
Previous

2 hours ago

EGXS 250150Z AUTO 15008KT 9999 // NCD 07/06 Q0998
Observed
Apr-25 @ 01:50 UTC
Wind
  • 150° at 8 KTS
Visibility
10,000+ meters
Flight Rules
VFR
Cloud Levels
  • Clear skies
Temperature
C / 45°F
Dewpoint
C / 43°F
Humidity
93%
Altimeter
29.47" Hg
Pressure
997.92 hPa
Previous

3 hours ago

EGXS 250050Z AUTO 14007KT 9999 // FEW070/// 08/06 Q0997
Observed
Apr-25 @ 00:50 UTC
Wind
  • 140° at 7 KTS
Visibility
10,000+ meters
Flight Rules
VFR
Cloud Levels
  • Few at 7,000' AGL
Temperature
C / 46°F
Dewpoint
C / 43°F
Humidity
87%
Altimeter
29.44" Hg
Pressure
996.92 hPa